createdAt,value
2019-03-10T00:00:53.812Z,22.70
2019-03-10T00:03:45.891Z,24.47
2019-03-10T00:06:36.044Z,24.33
2019-03-10T00:09:26.110Z,23.87
2019-03-10T00:12:16.424Z,24.50
2019-03-10T00:15:07.018Z,23.83
2019-03-10T00:17:57.488Z,24.63
2019-03-10T00:20:47.744Z,23.50
2019-03-10T00:23:37.787Z,24.53
2019-03-10T00:26:28.076Z,23.53
2019-03-10T00:29:18.520Z,23.87
2019-03-10T00:32:08.996Z,24.53
2019-03-10T00:34:59.508Z,24.20
2019-03-10T00:37:49.930Z,22.73
2019-03-10T00:41:16.587Z,23.93
2019-03-10T00:44:59.075Z,23.53
2019-03-10T00:48:49.488Z,24.40
2019-03-10T00:52:09.543Z,23.23
2019-03-10T00:54:59.642Z,23.77
2019-03-10T00:57:52.754Z,24.33
2019-03-10T01:00:43.066Z,24.53
2019-03-10T01:03:33.167Z,25.63
2019-03-10T01:06:23.462Z,23.73
2019-03-10T01:09:13.469Z,25.53
2019-03-10T01:12:03.601Z,24.83
2019-03-10T01:14:53.921Z,25.57
2019-03-10T01:17:45.198Z,24.53
2019-03-10T01:20:36.572Z,25.47
2019-03-10T01:23:27.138Z,25.30
2019-03-10T01:26:17.640Z,23.70
2019-03-10T01:29:07.960Z,25.07
2019-03-10T01:32:53.126Z,22.83
2019-03-10T01:35:43.863Z,22.47
2019-03-10T01:38:34.137Z,24.40
2019-03-10T01:41:24.737Z,23.03
2019-03-10T01:44:14.870Z,22.60
2019-03-10T01:47:04.942Z,22.27
2019-03-10T01:49:55.176Z,24.50
2019-03-10T01:52:45.524Z,21.63
2019-03-10T01:55:35.863Z,22.57
2019-03-10T01:58:26.147Z,21.03
2019-03-10T02:01:16.064Z,18.07
2019-03-10T02:04:06.216Z,12.07
2019-03-10T02:06:56.604Z,11.17
2019-03-10T02:09:47.087Z,11.17
2019-03-10T02:12:37.617Z,10.43
2019-03-10T02:15:27.972Z,9.40
2019-03-10T02:18:18.293Z,9.90
2019-03-10T02:21:08.665Z,9.70
2019-03-10T02:23:58.708Z,10.23
2019-03-10T02:26:49.070Z,9.90
2019-03-10T02:29:39.393Z,9.93
2019-03-10T02:32:32.349Z,9.27
2019-03-10T02:35:22.786Z,8.77
2019-03-10T02:38:12.880Z,9.77
2019-03-10T02:41:03.289Z,10.20
2019-03-10T02:43:53.702Z,10.00
2019-03-10T02:46:44.042Z,9.80
2019-03-10T02:49:34.006Z,10.00
2019-03-10T02:52:24.242Z,10.67
2019-03-10T02:55:14.542Z,11.17
2019-03-10T02:58:04.789Z,11.93
2019-03-10T03:00:54.862Z,11.73
2019-03-10T03:03:45.223Z,13.00
2019-03-10T03:06:35.394Z,13.27
2019-03-10T03:09:28.269Z,14.43
2019-03-10T03:12:18.426Z,13.50
2019-03-10T03:15:09.113Z,13.07
2019-03-10T03:17:59.322Z,11.63
2019-03-10T03:20:49.331Z,11.60
2019-03-10T03:23:39.763Z,12.80
2019-03-10T03:26:30.052Z,13.53
2019-03-10T03:29:20.420Z,15.00
2019-03-10T03:32:10.642Z,16.70
2019-03-10T03:35:01.009Z,17.33
2019-03-10T03:37:51.429Z,15.27
2019-03-10T03:40:43.861Z,9.83
2019-03-10T03:43:33.952Z,16.67
2019-03-10T03:46:24.539Z,17.53
2019-03-10T03:49:15.078Z,15.17
2019-03-10T03:52:05.478Z,15.17
2019-03-10T03:54:55.485Z,12.53
2019-03-10T03:57:45.781Z,9.53
2019-03-10T04:00:36.182Z,13.27
2019-03-10T04:03:26.450Z,12.97
2019-03-10T04:06:16.575Z,13.87
2019-03-10T04:09:08.299Z,12.70
2019-03-10T04:11:58.362Z,9.80
2019-03-10T04:14:48.757Z,7.70
2019-03-10T04:17:39.216Z,10.53
2019-03-10T04:20:29.427Z,15.83
2019-03-10T04:23:19.673Z,14.97
2019-03-10T04:26:09.686Z,11.47
2019-03-10T04:28:59.970Z,10.50
2019-03-10T04:31:50.332Z,10.50
2019-03-10T04:34:40.359Z,9.40
2019-03-10T04:37:30.684Z,7.97
2019-03-10T04:40:20.932Z,7.80
2019-03-10T04:43:11.445Z,8.90
2019-03-10T04:46:01.945Z,9.50
2019-03-10T04:48:52.938Z,6.43
2019-03-10T04:51:43.137Z,11.87
2019-03-10T04:54:50.878Z,12.10
2019-03-10T04:57:57.509Z,12.30
2019-03-10T05:00:50.344Z,11.47
2019-03-10T05:03:41.721Z,10.90
2019-03-10T05:06:31.987Z,10.90
2019-03-10T05:09:22.261Z,9.80
2019-03-10T05:12:12.619Z,9.97
2019-03-10T05:15:02.816Z,8.77
2019-03-10T05:17:52.978Z,9.97
2019-03-10T05:20:43.246Z,8.67
2019-03-10T05:23:47.160Z,6.63
2019-03-10T05:26:37.196Z,6.13
2019-03-10T05:29:27.238Z,5.87
2019-03-10T05:32:17.237Z,5.93
2019-03-10T05:35:07.521Z,6.27
2019-03-10T05:37:57.833Z,6.03
2019-03-10T05:40:48.073Z,6.03
2019-03-10T05:43:38.388Z,6.40
2019-03-10T05:46:29.851Z,6.23
2019-03-10T05:49:20.245Z,6.53
2019-03-10T05:52:10.588Z,6.60
2019-03-10T05:55:00.969Z,6.27
2019-03-10T05:57:50.865Z,6.47
2019-03-10T06:00:42.974Z,5.77
2019-03-10T06:03:32.859Z,6.13
2019-03-10T06:06:22.751Z,6.03
2019-03-10T06:09:13.124Z,6.30
2019-03-10T06:12:04.066Z,6.00
2019-03-10T06:14:54.818Z,5.95
2019-03-10T06:17:47.449Z,6.17
2019-03-10T06:20:38.156Z,5.80
2019-03-10T06:23:28.734Z,5.30
2019-03-10T06:26:19.510Z,5.95
2019-03-10T06:29:10.627Z,5.60
2019-03-10T06:32:01.766Z,5.62
2019-03-10T06:34:52.739Z,5.80
2019-03-10T06:37:44.492Z,5.53
2019-03-10T06:40:35.416Z,5.45
2019-03-10T06:43:26.225Z,6.17
2019-03-10T06:46:16.547Z,5.35
2019-03-10T06:49:07.077Z,5.50
2019-03-10T06:51:57.946Z,5.58
2019-03-10T06:54:48.994Z,5.40
2019-03-10T06:57:39.990Z,5.37
2019-03-10T07:00:30.871Z,5.10
2019-03-10T07:03:21.387Z,4.80
2019-03-10T07:06:12.980Z,5.67
2019-03-10T07:09:04.186Z,5.20
2019-03-10T07:11:55.326Z,5.28
2019-03-10T07:14:45.987Z,5.30
2019-03-10T07:17:36.736Z,5.33
2019-03-10T07:20:27.656Z,4.80
2019-03-10T07:23:19.826Z,5.12
2019-03-10T07:26:10.218Z,5.43
2019-03-10T07:29:15.484Z,5.50
2019-03-10T07:32:23.020Z,5.40
2019-03-10T07:35:34.109Z,5.12
2019-03-10T07:38:33.918Z,5.95
2019-03-10T07:41:35.035Z,5.97
2019-03-10T07:44:51.368Z,5.30
2019-03-10T07:48:01.147Z,5.50
2019-03-10T07:51:02.469Z,6.10
2019-03-10T07:54:15.507Z,6.70
2019-03-10T07:57:28.883Z,6.45
2019-03-10T08:00:31.663Z,6.95
2019-03-10T08:03:38.281Z,6.87
2019-03-10T08:06:47.758Z,6.87
2019-03-10T08:10:00.500Z,6.50
2019-03-10T08:13:10.545Z,6.55
2019-03-10T08:16:38.798Z,6.00
2019-03-10T08:19:46.413Z,5.60
2019-03-10T08:23:01.446Z,5.35
2019-03-10T08:26:16.267Z,6.55
2019-03-10T08:29:32.047Z,7.15
2019-03-10T08:32:38.566Z,7.05
2019-03-10T08:35:45.669Z,7.10
2019-03-10T08:39:01.515Z,7.65
2019-03-10T08:42:20.324Z,6.67
2019-03-10T08:45:26.033Z,7.20
2019-03-10T08:48:28.059Z,7.47
2019-03-10T08:51:43.628Z,7.25
2019-03-10T08:54:46.606Z,8.95
2019-03-10T08:57:46.993Z,8.30
2019-03-10T09:00:51.973Z,8.63
2019-03-10T09:04:04.551Z,7.92
2019-03-10T09:07:12.723Z,9.30
2019-03-10T09:10:19.839Z,10.72
2019-03-10T09:13:37.831Z,10.67
2019-03-10T09:16:36.600Z,9.57
2019-03-10T09:19:48.805Z,9.17
2019-03-10T09:22:57.581Z,7.63
2019-03-10T09:26:13.608Z,8.30
2019-03-10T09:29:22.727Z,9.10
2019-03-10T09:32:31.778Z,9.60
2019-03-10T09:35:33.568Z,9.47
2019-03-10T09:38:48.707Z,7.03
2019-03-10T09:41:46.371Z,8.40
2019-03-10T09:44:49.662Z,7.70
2019-03-10T09:47:49.630Z,6.83
2019-03-10T09:51:04.985Z,6.27
2019-03-10T09:54:26.258Z,6.50
2019-03-10T09:57:38.275Z,7.17
2019-03-10T10:00:56.264Z,8.20
2019-03-10T10:04:11.430Z,7.87
2019-03-10T10:07:29.241Z,7.27
2019-03-10T10:10:37.990Z,6.97
2019-03-10T10:13:52.120Z,6.77
2019-03-10T10:17:11.217Z,5.97
2019-03-10T10:20:17.089Z,6.33
2019-03-10T10:23:31.487Z,6.40
2019-03-10T10:26:34.560Z,5.97
2019-03-10T10:29:46.491Z,6.23
2019-03-10T10:32:58.819Z,4.10
2019-03-10T10:36:26.164Z,3.53
2019-03-10T10:39:41.029Z,5.07
2019-03-10T10:42:48.771Z,3.07
2019-03-10T10:45:58.007Z,2.80
2019-03-10T10:49:16.230Z,3.00
2019-03-10T10:52:27.787Z,4.50
2019-03-10T10:55:36.815Z,5.10
2019-03-10T10:58:58.316Z,5.60
2019-03-10T11:02:14.907Z,5.00
2019-03-10T11:05:32.895Z,5.27
2019-03-10T11:08:51.378Z,5.80
2019-03-10T11:11:57.874Z,5.53
2019-03-10T11:15:19.456Z,5.10
2019-03-10T11:18:27.139Z,5.20
2019-03-10T11:21:32.539Z,6.37
2019-03-10T11:24:41.821Z,5.97
2019-03-10T11:27:47.685Z,7.53
2019-03-10T11:31:05.876Z,6.87
2019-03-10T11:34:07.802Z,8.40
2019-03-10T11:37:15.904Z,4.27
2019-03-10T11:40:28.668Z,5.83
2019-03-10T11:43:38.251Z,7.17
2019-03-10T11:46:39.155Z,7.97
2019-03-10T11:49:48.058Z,11.47
2019-03-10T11:52:57.466Z,9.77
2019-03-10T11:56:03.669Z,4.97
2019-03-10T11:59:14.076Z,3.70
2019-03-10T12:02:33.654Z,6.30
2019-03-10T12:05:44.083Z,6.00
2019-03-10T12:08:45.694Z,4.10
2019-03-10T12:11:36.180Z,5.60
2019-03-10T12:14:27.005Z,3.53
2019-03-10T12:17:17.288Z,5.50
2019-03-10T12:20:08.493Z,8.20
2019-03-10T12:22:58.740Z,14.13
2019-03-10T12:25:49.079Z,8.50
2019-03-10T12:28:41.565Z,6.60
2019-03-10T12:31:31.243Z,5.10
2019-03-10T12:34:21.507Z,6.00
2019-03-10T12:37:11.892Z,5.37
2019-03-10T12:40:01.920Z,6.10
2019-03-10T12:42:52.289Z,7.10
2019-03-10T12:45:42.409Z,7.40
2019-03-10T12:48:32.822Z,7.93
2019-03-10T12:51:23.275Z,6.57
2019-03-10T12:54:13.587Z,5.00
2019-03-10T12:57:03.690Z,4.50
2019-03-10T12:59:53.691Z,6.30
2019-03-10T13:02:43.892Z,5.10
2019-03-10T13:05:34.326Z,5.10
2019-03-10T13:08:24.676Z,4.10
2019-03-10T13:11:14.968Z,4.90
2019-03-10T13:14:05.577Z,4.50
2019-03-10T13:16:56.983Z,5.07
2019-03-10T13:19:47.037Z,6.73
2019-03-10T13:22:37.380Z,6.50
2019-03-10T13:25:27.571Z,6.30
2019-03-10T13:28:17.634Z,5.87
2019-03-10T13:31:07.818Z,6.13
2019-03-10T13:33:58.285Z,6.37
2019-03-10T13:36:48.457Z,4.90
2019-03-10T13:39:39.708Z,5.77
2019-03-10T13:42:29.932Z,3.00
2019-03-10T13:45:20.249Z,3.17
2019-03-10T13:48:10.666Z,3.30
2019-03-10T13:51:01.139Z,2.70
2019-03-10T13:53:51.379Z,3.20
2019-03-10T13:56:41.705Z,2.80
2019-03-10T13:59:31.940Z,2.90
2019-03-10T14:02:22.210Z,2.77
2019-03-10T14:05:12.212Z,2.60
2019-03-10T14:08:02.561Z,2.70
2019-03-10T14:10:52.797Z,2.40
2019-03-10T14:13:43.316Z,2.50
2019-03-10T14:16:33.801Z,2.40
2019-03-10T14:19:23.839Z,2.47
2019-03-10T14:22:14.099Z,2.37
2019-03-10T14:25:04.295Z,2.40
2019-03-10T14:27:54.261Z,2.27
2019-03-10T14:30:44.637Z,2.60
2019-03-10T14:33:35.041Z,2.07
2019-03-10T14:36:25.186Z,2.23
2019-03-10T14:39:16.533Z,2.30
2019-03-10T14:42:06.939Z,2.17
2019-03-10T14:44:57.118Z,2.30
2019-03-10T14:47:47.352Z,2.10
2019-03-10T14:50:38.683Z,2.33
2019-03-10T14:53:28.759Z,2.37
2019-03-10T14:56:19.140Z,2.20
2019-03-10T14:59:09.463Z,2.20
2019-03-10T15:02:00.449Z,2.30
2019-03-10T15:04:51.003Z,2.00
2019-03-10T15:07:41.065Z,1.73
2019-03-10T15:10:31.377Z,2.10
2019-03-10T15:13:21.543Z,2.03
2019-03-10T15:16:11.885Z,1.70
2019-03-10T15:19:02.042Z,2.13
2019-03-10T15:21:53.239Z,2.40
2019-03-10T15:24:43.235Z,2.80
2019-03-10T15:27:33.649Z,3.10
2019-03-10T15:30:23.935Z,3.30
2019-03-10T15:33:14.267Z,3.17
2019-03-10T15:36:04.483Z,2.77
2019-03-10T15:38:54.819Z,2.80
2019-03-10T15:41:45.109Z,3.27
2019-03-10T15:44:35.581Z,2.90
2019-03-10T15:47:25.923Z,3.30
2019-03-10T15:50:23.817Z,3.00
2019-03-10T15:53:13.819Z,2.97
2019-03-10T15:56:04.174Z,3.20
2019-03-10T15:58:57.103Z,3.30
2019-03-10T16:01:47.643Z,3.10
2019-03-10T16:04:37.986Z,2.77
2019-03-10T16:07:28.428Z,2.70
2019-03-10T16:10:18.457Z,3.03
2019-03-10T16:13:08.757Z,3.13
2019-03-10T16:15:58.704Z,3.47
2019-03-10T16:18:50.979Z,2.90
2019-03-10T16:21:40.744Z,2.70
2019-03-10T16:24:31.289Z,3.03
2019-03-10T16:27:21.496Z,3.13
2019-03-10T16:30:14.694Z,3.13
2019-03-10T16:33:04.613Z,3.20
2019-03-10T16:35:54.995Z,3.87
2019-03-10T16:38:45.205Z,8.97
2019-03-10T16:41:35.364Z,3.50
2019-03-10T16:44:25.292Z,3.03
2019-03-10T16:47:15.662Z,3.20
2019-03-10T16:50:06.516Z,3.37
2019-03-10T16:52:56.870Z,3.40
2019-03-10T16:55:47.179Z,4.30
2019-03-10T16:58:37.440Z,89.13
2019-03-10T17:01:27.397Z,35.20
2019-03-10T17:04:18.090Z,9.23
2019-03-10T17:07:08.572Z,19.67
2019-03-10T17:09:59.015Z,45.27
2019-03-10T17:12:49.275Z,78.10
2019-03-10T17:15:39.354Z,22.37
2019-03-10T17:18:29.706Z,21.40
2019-03-10T17:21:21.075Z,12.77
2019-03-10T17:24:11.114Z,6.77
2019-03-10T17:27:01.519Z,6.23
2019-03-10T17:29:53.807Z,3.60
2019-03-10T17:32:44.210Z,3.17
2019-03-10T17:35:34.365Z,5.70
2019-03-10T17:38:24.556Z,3.20
2019-03-10T17:41:14.829Z,2.80
2019-03-10T17:44:05.321Z,3.03
2019-03-10T17:46:55.618Z,3.17
2019-03-10T17:49:46.261Z,2.90
2019-03-10T17:52:36.295Z,2.63
2019-03-10T17:55:26.628Z,2.50
2019-03-10T17:58:17.011Z,3.00
2019-03-10T18:01:07.580Z,3.23
2019-03-10T18:03:57.714Z,3.00
2019-03-10T18:06:48.116Z,3.00
2019-03-10T18:09:39.682Z,3.13
2019-03-10T18:12:30.533Z,2.97
2019-03-10T18:15:20.965Z,3.50
2019-03-10T18:18:11.230Z,3.10
2019-03-10T18:21:01.490Z,2.93
2019-03-10T18:23:51.868Z,2.93
2019-03-10T18:26:42.262Z,3.00
2019-03-10T18:29:32.604Z,2.97
2019-03-10T18:32:22.927Z,2.40
2019-03-10T18:35:12.993Z,2.40
2019-03-10T18:38:04.268Z,2.90
2019-03-10T18:40:54.637Z,2.50
2019-03-10T18:43:46.109Z,2.83
2019-03-10T18:46:36.663Z,2.73
2019-03-10T18:49:28.197Z,2.80
2019-03-10T18:52:20.041Z,2.57
2019-03-10T18:55:11.025Z,2.97
2019-03-10T18:58:01.269Z,2.87
2019-03-10T19:00:51.474Z,2.80
2019-03-10T19:03:41.725Z,2.77
2019-03-10T19:06:32.019Z,2.97
2019-03-10T19:09:22.036Z,2.70
2019-03-10T19:12:12.048Z,3.10
2019-03-10T19:15:02.597Z,2.90
2019-03-10T19:17:52.717Z,2.73
2019-03-10T19:20:42.853Z,3.00
2019-03-10T19:23:33.109Z,2.90
2019-03-10T19:26:23.527Z,2.90
2019-03-10T19:29:13.828Z,3.07
2019-03-10T19:32:04.450Z,2.97
2019-03-10T19:34:54.689Z,3.10
2019-03-10T19:37:45.023Z,3.10
2019-03-10T19:40:35.280Z,3.13
2019-03-10T19:43:25.336Z,2.97
2019-03-10T19:46:15.761Z,2.80
2019-03-10T19:49:06.228Z,2.97
2019-03-10T19:51:57.648Z,3.00
2019-03-10T19:54:50.778Z,2.83
2019-03-10T19:57:41.144Z,2.70
2019-03-10T20:00:31.662Z,3.10
2019-03-10T20:03:21.908Z,2.93
2019-03-10T20:06:12.314Z,3.10
2019-03-10T20:09:02.491Z,3.50
2019-03-10T20:11:54.642Z,3.23
2019-03-10T20:14:44.954Z,2.90
2019-03-10T20:17:34.991Z,3.03
2019-03-10T20:20:25.368Z,3.17
2019-03-10T20:23:16.745Z,3.47
2019-03-10T20:26:07.108Z,3.27
2019-03-10T20:28:57.352Z,3.20
2019-03-10T20:31:47.920Z,3.00
2019-03-10T20:34:38.327Z,3.27
2019-03-10T20:37:28.483Z,2.90
2019-03-10T20:40:18.578Z,2.83
2019-03-10T20:43:08.868Z,3.13
2019-03-10T20:45:58.922Z,3.20
2019-03-10T20:48:49.331Z,3.50
2019-03-10T20:51:39.586Z,3.57
2019-03-10T20:54:29.748Z,3.43
2019-03-10T20:57:20.365Z,3.67
2019-03-10T21:00:15.663Z,3.60
2019-03-10T21:03:06.464Z,3.63
2019-03-10T21:05:56.694Z,3.40
2019-03-10T21:08:48.240Z,3.93
2019-03-10T21:11:38.640Z,3.70
2019-03-10T21:14:28.974Z,3.57
2019-03-10T21:17:19.303Z,3.73
2019-03-10T21:20:10.764Z,3.70
2019-03-10T21:23:01.058Z,3.60
2019-03-10T21:25:51.506Z,4.20
2019-03-10T21:28:41.456Z,3.60
2019-03-10T21:31:32.070Z,3.20
2019-03-10T21:34:24.227Z,3.63
2019-03-10T21:37:14.591Z,3.23
2019-03-10T21:40:05.034Z,3.33
2019-03-10T21:42:55.846Z,3.17
2019-03-10T21:45:46.307Z,3.13
2019-03-10T21:48:36.745Z,3.17
2019-03-10T21:51:28.246Z,2.80
2019-03-10T21:54:18.538Z,3.20
2019-03-10T21:57:08.739Z,2.70
2019-03-10T21:59:59.081Z,2.83
2019-03-10T22:02:49.345Z,2.70
2019-03-10T22:05:39.601Z,3.47
2019-03-10T22:08:29.809Z,3.03
2019-03-10T22:11:20.546Z,2.90
2019-03-10T22:14:11.640Z,3.10
2019-03-10T22:17:02.103Z,3.73
2019-03-10T22:19:53.529Z,4.00
2019-03-10T22:22:49.150Z,4.00
2019-03-10T22:25:35.967Z,3.90
2019-03-10T22:28:26.576Z,4.30
2019-03-10T22:31:16.497Z,3.50
2019-03-10T22:34:06.521Z,3.13
2019-03-10T22:36:57.083Z,3.50
2019-03-10T22:39:47.275Z,3.10
2019-03-10T22:42:37.545Z,3.13
2019-03-10T22:45:27.912Z,2.80
2019-03-10T22:48:18.238Z,2.70
2019-03-10T22:51:08.477Z,3.37
2019-03-10T22:53:58.546Z,3.20
2019-03-10T22:56:48.861Z,3.53
2019-03-10T22:59:39.069Z,3.30
2019-03-10T23:02:29.490Z,3.00
2019-03-10T23:05:19.736Z,3.23
2019-03-10T23:08:10.053Z,3.47
2019-03-10T23:11:00.309Z,2.73
2019-03-10T23:13:50.576Z,3.13
2019-03-10T23:16:40.680Z,3.10
2019-03-10T23:19:31.188Z,3.10
2019-03-10T23:22:21.346Z,2.73
2019-03-10T23:25:11.702Z,3.10
2019-03-10T23:28:02.786Z,3.20
2019-03-10T23:30:55.129Z,3.50
2019-03-10T23:33:45.367Z,3.37
2019-03-10T23:36:35.555Z,3.07
2019-03-10T23:39:26.023Z,3.60
2019-03-10T23:42:16.414Z,3.30
2019-03-10T23:45:07.024Z,3.47
2019-03-10T23:47:57.135Z,3.20
2019-03-10T23:50:47.404Z,3.07
2019-03-10T23:53:37.761Z,3.00
2019-03-10T23:56:28.010Z,2.80
2019-03-10T23:59:18.297Z,2.63
